createdAt,value
2019-03-15T00:00:39.405Z,1.00
2019-03-15T00:03:09.938Z,1.40
2019-03-15T00:05:40.495Z,1.57
2019-03-15T00:08:10.964Z,1.80
2019-03-15T00:10:41.440Z,1.50
2019-03-15T00:13:12.469Z,1.67
2019-03-15T00:15:43.189Z,1.90
2019-03-15T00:18:13.663Z,2.00
2019-03-15T00:20:44.125Z,2.40
2019-03-15T00:23:14.594Z,1.90
2019-03-15T00:25:45.860Z,2.03
2019-03-15T00:28:16.355Z,2.00
2019-03-15T00:30:47.370Z,1.90
2019-03-15T00:33:17.963Z,1.70
2019-03-15T00:35:48.478Z,1.73
2019-03-15T00:38:19.468Z,1.73
2019-03-15T00:40:50.148Z,1.33
2019-03-15T00:43:20.621Z,1.70
2019-03-15T00:45:51.452Z,1.60
2019-03-15T00:48:21.916Z,1.60
2019-03-15T00:50:53.554Z,1.57
2019-03-15T00:53:24.360Z,1.30
2019-03-15T00:55:55.020Z,1.50
2019-03-15T00:58:25.831Z,1.33
2019-03-15T01:00:56.337Z,1.57
2019-03-15T01:03:27.028Z,1.30
2019-03-15T01:05:57.975Z,1.30
2019-03-15T01:08:28.830Z,0.87
2019-03-15T01:10:59.432Z,1.10
2019-03-15T01:13:29.849Z,1.17
2019-03-15T01:16:00.328Z,1.10
2019-03-15T01:18:31.812Z,1.10
2019-03-15T01:21:02.433Z,1.10
2019-03-15T01:23:33.415Z,1.00
2019-03-15T01:26:05.178Z,1.10
2019-03-15T01:28:36.072Z,1.30
2019-03-15T01:31:06.537Z,1.17
2019-03-15T01:33:37.034Z,1.03
2019-03-15T01:36:07.552Z,1.30
2019-03-15T01:38:38.437Z,1.10
2019-03-15T01:41:09.054Z,1.30
2019-03-15T01:43:39.552Z,1.17
2019-03-15T01:46:11.050Z,1.20
2019-03-15T01:48:42.594Z,0.97
2019-03-15T01:51:13.249Z,1.27
2019-03-15T01:53:45.307Z,0.97
2019-03-15T01:56:15.777Z,1.00
2019-03-15T01:58:46.244Z,0.83
2019-03-15T02:01:17.286Z,1.23
2019-03-15T02:03:48.281Z,1.20
2019-03-15T02:06:18.735Z,1.03
2019-03-15T02:08:49.257Z,1.10
2019-03-15T02:11:19.869Z,1.37
2019-03-15T02:13:50.378Z,1.40
2019-03-15T02:16:21.254Z,1.43
2019-03-15T02:18:51.933Z,1.40
2019-03-15T02:21:22.475Z,1.67
2019-03-15T02:23:53.057Z,2.20
2019-03-15T02:26:23.652Z,1.30
2019-03-15T02:28:54.256Z,1.30
2019-03-15T02:31:25.011Z,1.20
2019-03-15T02:33:55.508Z,1.10
2019-03-15T02:36:26.013Z,1.03
2019-03-15T02:38:56.630Z,0.90
2019-03-15T02:41:27.372Z,1.10
2019-03-15T02:43:58.769Z,0.90
2019-03-15T02:46:29.281Z,0.90
2019-03-15T02:48:59.964Z,1.00
2019-03-15T02:51:30.455Z,0.90
2019-03-15T02:54:01.176Z,1.30
2019-03-15T02:56:31.711Z,1.33
2019-03-15T02:59:02.188Z,1.00
2019-03-15T03:01:33.959Z,1.00
2019-03-15T03:04:04.767Z,1.10
2019-03-15T03:06:35.456Z,1.10
2019-03-15T03:09:07.798Z,1.10
2019-03-15T03:11:39.211Z,1.10
2019-03-15T03:14:09.761Z,1.13
2019-03-15T03:16:40.369Z,1.30
2019-03-15T03:19:10.945Z,1.10
2019-03-15T03:21:42.190Z,1.07
2019-03-15T03:24:13.171Z,1.10
2019-03-15T03:26:43.736Z,1.23
2019-03-15T03:29:14.533Z,1.10
2019-03-15T03:31:46.075Z,0.93
2019-03-15T03:34:17.171Z,1.00
2019-03-15T03:36:47.698Z,0.93
2019-03-15T03:39:18.492Z,1.40
2019-03-15T03:41:49.081Z,1.20
2019-03-15T03:44:19.881Z,1.10
2019-03-15T03:46:50.530Z,0.93
2019-03-15T03:49:21.082Z,1.40
2019-03-15T03:51:51.899Z,1.47
2019-03-15T03:54:22.903Z,0.90
2019-03-15T03:56:53.914Z,1.00
2019-03-15T03:59:24.533Z,0.90
2019-03-15T04:01:55.256Z,0.80
2019-03-15T04:04:25.780Z,0.93
2019-03-15T04:06:56.497Z,0.80
2019-03-15T04:09:27.179Z,1.13
2019-03-15T04:11:57.960Z,0.70
2019-03-15T04:14:28.477Z,0.90
2019-03-15T04:16:59.031Z,0.70
2019-03-15T04:19:29.481Z,0.73
2019-03-15T04:22:00.129Z,0.70
2019-03-15T04:24:30.714Z,0.70
2019-03-15T04:27:01.334Z,0.60
2019-03-15T04:29:31.789Z,0.80
2019-03-15T04:32:02.403Z,0.70
2019-03-15T04:34:33.149Z,0.90
2019-03-15T04:37:03.583Z,0.70
2019-03-15T04:39:34.037Z,0.70
2019-03-15T04:42:04.498Z,0.90
2019-03-15T04:44:34.941Z,0.90
2019-03-15T04:47:05.369Z,0.90
2019-03-15T04:49:35.834Z,1.40
2019-03-15T04:52:06.598Z,0.90
2019-03-15T04:54:37.926Z,0.90
2019-03-15T04:57:08.761Z,1.07
2019-03-15T04:59:39.241Z,1.73
2019-03-15T05:02:09.880Z,1.70
2019-03-15T05:04:40.417Z,1.40
2019-03-15T05:07:11.247Z,1.20
2019-03-15T05:09:41.780Z,1.00
2019-03-15T05:12:12.419Z,0.90
2019-03-15T05:14:42.932Z,1.03
2019-03-15T05:17:13.405Z,0.93
2019-03-15T05:19:44.006Z,1.50
2019-03-15T05:22:14.705Z,1.10
2019-03-15T05:24:45.164Z,1.07
2019-03-15T05:27:15.621Z,1.47
2019-03-15T05:29:46.106Z,1.10
2019-03-15T05:32:16.614Z,1.50
2019-03-15T05:34:47.041Z,1.60
2019-03-15T05:37:17.556Z,1.30
2019-03-15T05:39:48.400Z,1.13
2019-03-15T05:42:18.893Z,1.00
2019-03-15T05:44:49.881Z,0.90
2019-03-15T05:47:20.318Z,1.43
2019-03-15T05:49:50.809Z,1.03
2019-03-15T05:52:21.538Z,1.40
2019-03-15T05:54:52.394Z,1.03
2019-03-15T05:57:22.954Z,1.10
2019-03-15T05:59:53.773Z,1.20
2019-03-15T06:02:24.234Z,0.90
2019-03-15T06:04:54.699Z,1.00
2019-03-15T06:07:25.156Z,0.87
2019-03-15T06:09:55.611Z,0.83
2019-03-15T06:12:26.078Z,0.90
2019-03-15T06:14:56.959Z,0.83
2019-03-15T06:17:27.409Z,0.90
2019-03-15T06:19:57.945Z,1.20
2019-03-15T06:22:28.417Z,0.93
2019-03-15T06:24:58.888Z,0.90
2019-03-15T06:27:31.210Z,0.90
2019-03-15T06:30:01.685Z,1.13
2019-03-15T06:32:32.126Z,0.90
2019-03-15T06:35:02.665Z,1.10
2019-03-15T06:37:33.123Z,1.10
2019-03-15T06:40:05.095Z,0.93
2019-03-15T06:42:35.553Z,1.07
2019-03-15T06:45:07.335Z,1.27
2019-03-15T06:47:38.085Z,1.20
2019-03-15T06:50:08.762Z,1.00
2019-03-15T06:52:39.229Z,1.03
2019-03-15T06:55:09.726Z,1.10
2019-03-15T06:57:40.181Z,1.37
2019-03-15T07:00:10.848Z,1.13
2019-03-15T07:02:41.333Z,1.00
2019-03-15T07:05:12.661Z,0.70
2019-03-15T07:07:44.366Z,1.00
2019-03-15T07:10:15.847Z,1.00
2019-03-15T07:12:46.608Z,1.00
2019-03-15T07:15:17.104Z,1.10
2019-03-15T07:17:47.789Z,0.80
2019-03-15T07:20:18.386Z,1.20
2019-03-15T07:22:48.882Z,0.90
2019-03-15T07:25:19.553Z,0.87
2019-03-15T07:27:50.158Z,1.00
2019-03-15T07:30:20.589Z,0.80
2019-03-15T07:32:51.165Z,0.97
2019-03-15T07:35:21.614Z,0.80
2019-03-15T07:37:52.057Z,0.90
2019-03-15T07:40:22.525Z,0.83
2019-03-15T07:42:52.989Z,0.80
2019-03-15T07:45:23.457Z,0.80
2019-03-15T07:47:54.225Z,0.50
2019-03-15T07:50:24.720Z,0.60
2019-03-15T07:52:55.251Z,0.60
2019-03-15T07:55:25.877Z,0.50
2019-03-15T07:57:56.313Z,0.50
2019-03-15T08:00:26.831Z,0.50
2019-03-15T08:02:57.405Z,0.60
2019-03-15T08:05:27.846Z,0.60
2019-03-15T08:07:58.406Z,0.80
2019-03-15T08:10:29.100Z,0.50
2019-03-15T08:12:59.633Z,0.70
2019-03-15T08:15:30.120Z,0.97
2019-03-15T08:18:00.581Z,0.80
2019-03-15T08:20:31.060Z,1.00
2019-03-15T08:23:01.533Z,0.67
2019-03-15T08:25:32.064Z,0.60
2019-03-15T08:28:02.523Z,0.70
2019-03-15T08:30:33.431Z,1.10
2019-03-15T08:33:09.987Z,0.90
2019-03-15T08:35:37.084Z,0.50
2019-03-15T08:38:07.649Z,0.40
2019-03-15T08:40:38.111Z,0.50
2019-03-15T08:43:08.654Z,0.60
2019-03-15T08:45:39.114Z,0.50
2019-03-15T08:48:09.744Z,0.50
2019-03-15T08:50:40.275Z,0.50
2019-03-15T08:53:10.734Z,0.40
2019-03-15T08:55:41.269Z,0.60
2019-03-15T08:58:15.841Z,0.53
2019-03-15T09:00:44.902Z,0.40
2019-03-15T09:03:27.258Z,0.40
2019-03-15T09:05:47.600Z,0.50
2019-03-15T09:08:18.354Z,0.50
2019-03-15T09:10:48.898Z,0.50
2019-03-15T09:13:19.944Z,0.50
2019-03-15T09:15:50.844Z,0.30
2019-03-15T09:18:21.432Z,0.43
2019-03-15T09:20:52.018Z,0.40
2019-03-15T09:23:22.705Z,0.50
2019-03-15T09:25:53.601Z,0.63
2019-03-15T09:28:24.226Z,0.50
2019-03-15T09:30:54.709Z,0.77
2019-03-15T09:33:26.410Z,0.50
2019-03-15T09:35:56.913Z,0.50
2019-03-15T09:38:27.484Z,0.60
2019-03-15T09:40:57.945Z,0.50
2019-03-15T09:43:29.035Z,0.47
2019-03-15T09:45:59.566Z,0.50
2019-03-15T09:48:30.338Z,0.50
2019-03-15T09:51:01.411Z,0.70
2019-03-15T09:53:31.875Z,0.50
2019-03-15T09:56:02.356Z,0.80
2019-03-15T09:58:32.943Z,0.60
2019-03-15T10:01:04.097Z,0.60
2019-03-15T10:03:35.053Z,0.63
2019-03-15T10:06:14.892Z,0.60
2019-03-15T10:08:37.854Z,0.63
2019-03-15T10:11:08.725Z,0.70
2019-03-15T10:13:39.434Z,0.50
2019-03-15T10:16:09.937Z,0.40
2019-03-15T10:19:16.246Z,0.40
2019-03-15T10:21:46.722Z,0.50
2019-03-15T10:24:17.437Z,0.70
2019-03-15T10:26:48.028Z,0.40
2019-03-15T10:29:19.782Z,0.60
2019-03-15T10:31:52.573Z,0.50
2019-03-15T10:34:24.788Z,0.57
2019-03-15T10:36:58.108Z,0.50
2019-03-15T10:39:29.121Z,0.80
2019-03-15T10:41:59.744Z,0.60
2019-03-15T10:44:30.411Z,0.60
2019-03-15T10:47:00.946Z,0.60
2019-03-15T10:49:31.700Z,0.50
2019-03-15T10:52:02.483Z,0.60
2019-03-15T10:54:33.183Z,0.47
2019-03-15T10:57:04.249Z,0.50
2019-03-15T10:59:34.933Z,0.47
2019-03-15T11:02:05.771Z,0.50
2019-03-15T11:04:36.280Z,0.50
2019-03-15T11:07:07.282Z,0.50
2019-03-15T11:09:37.917Z,0.50
2019-03-15T11:12:09.026Z,0.80
2019-03-15T11:14:39.603Z,0.50
2019-03-15T11:17:10.124Z,0.40
2019-03-15T11:19:40.730Z,0.50
2019-03-15T11:22:11.204Z,0.60
2019-03-15T11:24:43.767Z,0.50
2019-03-15T11:27:14.057Z,0.43
2019-03-15T11:29:44.553Z,0.40
2019-03-15T11:32:15.166Z,0.53
2019-03-15T11:34:46.330Z,0.50
2019-03-15T11:37:16.929Z,0.50
2019-03-15T11:39:47.884Z,0.40
2019-03-15T11:42:19.448Z,0.50
2019-03-15T11:44:50.035Z,0.37
2019-03-15T11:47:20.624Z,0.40
2019-03-15T11:49:51.268Z,0.40
2019-03-15T11:52:21.781Z,0.70
2019-03-15T11:54:52.249Z,0.40
2019-03-15T11:57:22.746Z,0.30
2019-03-15T11:59:53.735Z,0.40
2019-03-15T12:02:24.437Z,0.78
2019-03-15T12:04:54.940Z,0.53
2019-03-15T12:07:25.493Z,0.50
2019-03-15T12:09:55.997Z,0.50
2019-03-15T12:12:26.471Z,0.47
2019-03-15T12:14:56.951Z,0.50
2019-03-15T12:17:27.402Z,0.50
2019-03-15T12:19:58.225Z,0.67
2019-03-15T12:22:28.677Z,0.50
2019-03-15T12:24:59.585Z,0.50
2019-03-15T12:27:30.039Z,0.60
2019-03-15T12:30:00.533Z,0.45
2019-03-15T12:32:30.985Z,0.50
2019-03-15T12:35:01.791Z,0.43
2019-03-15T12:37:32.292Z,0.60
2019-03-15T12:40:03.386Z,0.57
2019-03-15T12:42:33.889Z,0.60
2019-03-15T12:45:04.697Z,0.53
2019-03-15T12:47:35.187Z,0.50
2019-03-15T12:50:05.732Z,0.90
2019-03-15T12:52:46.421Z,0.50
2019-03-15T12:55:08.488Z,0.60
2019-03-15T12:57:39.045Z,0.70
2019-03-15T13:00:12.032Z,0.77
2019-03-15T13:02:43.756Z,0.60
2019-03-15T13:05:15.324Z,0.37
2019-03-15T13:07:45.820Z,0.50
2019-03-15T13:10:16.429Z,0.40
2019-03-15T13:12:47.044Z,0.40
2019-03-15T13:15:17.612Z,0.50
2019-03-15T13:17:48.126Z,0.50
2019-03-15T13:20:18.771Z,0.60
2019-03-15T13:22:49.257Z,0.50
2019-03-15T13:25:19.789Z,0.45
2019-03-15T13:27:50.549Z,0.50
2019-03-15T13:30:21.072Z,0.43
2019-03-15T13:32:51.620Z,0.50
2019-03-15T13:35:22.147Z,0.50
2019-03-15T13:37:52.860Z,0.55
2019-03-15T13:40:23.381Z,0.40
2019-03-15T13:42:53.813Z,0.50
2019-03-15T13:45:45.155Z,0.53
2019-03-15T13:48:44.047Z,0.60
2019-03-15T13:51:17.012Z,0.40
2019-03-15T13:53:47.489Z,0.67
2019-03-15T13:56:18.351Z,0.43
2019-03-15T13:58:57.189Z,0.50
2019-03-15T14:01:21.061Z,0.50
2019-03-15T14:03:51.627Z,0.60
2019-03-15T14:06:22.373Z,0.40
2019-03-15T14:08:53.084Z,0.40
2019-03-15T14:11:24.026Z,0.50
2019-03-15T14:13:54.482Z,0.50
2019-03-15T14:16:26.321Z,0.60
2019-03-15T14:18:57.072Z,0.50
2019-03-15T14:21:28.052Z,0.50
2019-03-15T14:23:59.561Z,0.70
2019-03-15T14:26:30.080Z,0.40
2019-03-15T14:29:00.558Z,0.50
2019-03-15T14:31:31.137Z,0.50
2019-03-15T14:34:01.557Z,0.50
2019-03-15T14:36:32.086Z,0.50
2019-03-15T14:39:02.572Z,0.50
2019-03-15T14:41:33.362Z,0.60
2019-03-15T14:44:03.981Z,0.60
2019-03-15T14:46:34.408Z,0.50
2019-03-15T14:49:04.848Z,0.63
2019-03-15T14:51:35.448Z,0.53
2019-03-15T14:54:05.919Z,0.50
2019-03-15T14:56:36.473Z,0.53
2019-03-15T14:59:07.205Z,0.70
2019-03-15T15:01:37.753Z,0.47
2019-03-15T15:04:08.264Z,0.60
2019-03-15T15:06:38.833Z,0.50
2019-03-15T15:09:09.353Z,0.70
2019-03-15T15:11:40.572Z,0.57
2019-03-15T15:14:11.149Z,0.60
2019-03-15T15:16:41.804Z,0.70
2019-03-15T15:19:12.389Z,0.55
2019-03-15T15:21:42.927Z,0.55
2019-03-15T15:24:13.469Z,0.70
2019-03-15T15:26:44.172Z,0.55
2019-03-15T15:29:14.729Z,0.60
2019-03-15T15:31:46.252Z,0.60
2019-03-15T15:34:16.821Z,0.60
2019-03-15T15:36:47.347Z,0.68
2019-03-15T15:39:17.844Z,0.68
2019-03-15T15:41:48.377Z,0.65
2019-03-15T15:44:19.078Z,0.70
2019-03-15T15:46:49.635Z,0.70
2019-03-15T15:49:20.122Z,0.60
2019-03-15T15:51:50.620Z,0.70
2019-03-15T15:54:21.221Z,0.57
2019-03-15T15:56:51.956Z,0.60
2019-03-15T15:59:22.494Z,0.62
2019-03-15T16:01:52.941Z,0.60
2019-03-15T16:04:23.414Z,0.70
2019-03-15T16:06:53.865Z,0.65
2019-03-15T16:09:24.384Z,0.80
2019-03-15T16:11:55.325Z,0.70
2019-03-15T16:14:25.804Z,0.60
2019-03-15T16:16:56.287Z,0.75
2019-03-15T16:19:26.829Z,0.50
2019-03-15T16:21:57.325Z,0.60
2019-03-15T16:24:27.926Z,0.60
2019-03-15T16:26:59.279Z,0.65
2019-03-15T16:29:29.866Z,0.60
2019-03-15T16:32:00.449Z,0.60
2019-03-15T16:34:30.954Z,0.60
2019-03-15T16:37:02.117Z,0.70
2019-03-15T16:39:33.025Z,0.70
2019-03-15T16:42:03.614Z,0.70
2019-03-15T16:44:34.199Z,0.65
2019-03-15T16:47:04.830Z,0.60
2019-03-15T16:49:35.294Z,0.50
2019-03-15T16:52:05.756Z,0.60
2019-03-15T16:54:36.205Z,0.80
2019-03-15T16:57:06.764Z,0.80
2019-03-15T16:59:37.475Z,0.70
2019-03-15T17:02:08.637Z,0.60
2019-03-15T17:04:39.474Z,1.00
2019-03-15T17:07:09.941Z,0.90
2019-03-15T17:09:40.769Z,0.85
2019-03-15T17:12:11.396Z,0.70
2019-03-15T17:14:42.157Z,0.60
2019-03-15T17:17:12.626Z,0.70
2019-03-15T17:19:43.092Z,0.80
2019-03-15T17:22:13.578Z,0.70
2019-03-15T17:24:44.474Z,0.80
2019-03-15T17:27:16.110Z,0.80
2019-03-15T17:29:46.644Z,0.60
2019-03-15T17:32:17.148Z,0.80
2019-03-15T17:34:48.144Z,0.85
2019-03-15T17:37:19.798Z,0.90
2019-03-15T17:39:50.405Z,0.70
2019-03-15T17:42:21.127Z,0.70
2019-03-15T17:44:51.725Z,1.10
2019-03-15T17:47:22.205Z,0.90
2019-03-15T17:49:53.075Z,0.80
2019-03-15T17:52:23.584Z,0.70
2019-03-15T17:54:54.353Z,0.80
2019-03-15T17:57:25.970Z,1.00
2019-03-15T18:00:15.746Z,0.93
2019-03-15T18:02:46.297Z,1.30
2019-03-15T18:05:16.826Z,0.70
2019-03-15T18:07:47.320Z,0.80
2019-03-15T18:10:17.812Z,0.77
2019-03-15T18:12:48.393Z,0.70
2019-03-15T18:15:18.895Z,0.80
2019-03-15T18:17:49.799Z,0.70
2019-03-15T18:20:20.240Z,0.80
2019-03-15T18:22:50.754Z,0.70
2019-03-15T18:25:21.500Z,0.80
2019-03-15T18:27:53.341Z,0.60
2019-03-15T18:30:24.352Z,0.70
2019-03-15T18:32:55.042Z,0.85
2019-03-15T18:35:33.598Z,0.80
2019-03-15T18:37:57.812Z,0.80
2019-03-15T18:40:28.275Z,0.70
2019-03-15T18:42:59.001Z,0.70
2019-03-15T18:45:29.520Z,0.70
2019-03-15T18:48:00.033Z,0.70
2019-03-15T18:53:12.155Z,0.70
2019-03-15T18:55:42.623Z,0.80
2019-03-15T18:58:13.112Z,0.60
2019-03-15T19:00:43.577Z,0.70
2019-03-15T19:03:14.241Z,0.85
2019-03-15T19:05:45.052Z,0.90
2019-03-15T19:08:15.550Z,0.82
2019-03-15T19:10:46.172Z,0.70
2019-03-15T19:13:16.822Z,0.68
2019-03-15T19:15:47.314Z,0.80
2019-03-15T19:18:17.784Z,0.70
2019-03-15T19:20:57.290Z,0.80
2019-03-15T19:23:27.757Z,0.70
2019-03-15T19:25:59.410Z,0.80
2019-03-15T19:28:29.889Z,0.90
2019-03-15T19:31:00.710Z,0.80
2019-03-15T19:33:31.217Z,0.78
2019-03-15T19:36:01.684Z,0.70
2019-03-15T19:38:32.166Z,0.70
2019-03-15T19:41:02.650Z,0.70
2019-03-15T19:43:33.451Z,0.70
2019-03-15T19:46:03.920Z,0.80
2019-03-15T19:48:34.477Z,0.75
2019-03-15T19:51:04.964Z,0.80
2019-03-15T19:53:35.513Z,0.65
2019-03-15T19:56:06.025Z,0.80
2019-03-15T19:58:36.622Z,0.80
2019-03-15T20:01:07.204Z,1.00
2019-03-15T20:03:44.246Z,0.80
2019-03-15T20:06:11.740Z,0.80
2019-03-15T20:08:42.235Z,0.80
2019-03-15T20:11:12.774Z,0.70
2019-03-15T20:13:43.365Z,0.80
2019-03-15T20:16:14.146Z,0.80
2019-03-15T20:18:44.666Z,0.70
2019-03-15T20:21:15.547Z,0.72
2019-03-15T20:23:46.103Z,0.60
2019-03-15T20:26:16.926Z,0.80
2019-03-15T20:28:47.434Z,0.70
2019-03-15T20:31:18.304Z,0.70
2019-03-15T20:33:49.054Z,0.60
2019-03-15T20:36:19.608Z,0.70
2019-03-15T20:38:50.092Z,0.70
2019-03-15T20:41:21.088Z,0.70
2019-03-15T20:43:51.632Z,0.90
2019-03-15T20:46:35.261Z,0.90
2019-03-15T20:48:54.849Z,0.67
2019-03-15T20:51:25.807Z,0.70
2019-03-15T20:53:56.386Z,0.60
2019-03-15T20:56:26.883Z,0.77
2019-03-15T20:58:57.400Z,0.60
2019-03-15T21:01:28.173Z,0.63
2019-03-15T21:03:58.656Z,0.60
2019-03-15T21:06:29.210Z,0.70
2019-03-15T21:09:00.238Z,0.50
2019-03-15T21:11:30.819Z,0.80
2019-03-15T21:14:01.974Z,0.70
